Time;durP1;ratioP1;P1;durP2;ratioP2;P2;SDS_P1;SDS_P2;PMS_P1;PMS_P2;Temp;Humidity;BMP_temperature;BMP_pressure;BME280_temperature;BME280_humidity;BME280_pressure;Samples;Min_cycle;Max_cycle;Signal;HPM_P1;HPM_P2
2023/11/15 00:00:11;;;;;;;2.93;2.00;;;9.80;99.90;;;;;;5075219;28;20224;-81
2023/11/15 00:02:38;;;;;;;7.07;2.37;;;9.80;99.90;;;;;;5069893;28;20191;-81
2023/11/15 00:05:06;;;;;;;3.70;2.03;;;9.90;99.90;;;;;;5074943;28;20204;-82
2023/11/15 00:07:35;;;;;;;5.40;2.23;;;9.80;99.90;;;;;;5071762;28;20226;-82
2023/11/15 00:10:03;;;;;;;3.80;1.83;;;9.80;99.90;;;;;;5062280;28;20568;-81
2023/11/15 00:12:31;;;;;;;3.87;1.60;;;9.80;99.90;;;;;;5066731;28;20599;-82
2023/11/15 00:14:58;;;;;;;3.70;1.30;;;9.80;99.90;;;;;;5071139;28;20206;-82
2023/11/15 00:17:25;;;;;;;5.20;1.67;;;9.80;99.90;;;;;;5066540;28;20241;-80
2023/11/15 00:19:53;;;;;;;4.37;1.43;;;9.80;99.90;;;;;;5063926;28;20655;-82
2023/11/15 00:22:22;;;;;;;4.37;1.30;;;9.90;99.90;;;;;;5066676;28;20198;-82
2023/11/15 00:24:51;;;;;;;3.50;1.80;;;9.90;99.90;;;;;;5071538;28;20202;-81
2023/11/15 00:27:17;;;;;;;6.53;1.80;;;9.80;47.30;;;;;;5074735;28;20222;-81
2023/11/15 00:29:44;;;;;;;3.03;1.30;;;9.80;1.00;;;;;;5067559;28;20210;-82
2023/11/15 00:32:11;;;;;;;4.70;1.17;;;9.80;1.00;;;;;;5071750;28;20659;-81
2023/11/15 00:34:38;;;;;;;4.13;1.77;;;9.80;1.00;;;;;;5066006;28;20206;-81
2023/11/15 00:37:05;;;;;;;3.90;1.40;;;9.80;99.90;;;;;;5069248;28;20246;-81
2023/11/15 00:39:34;;;;;;;2.03;1.30;;;9.80;1.00;;;;;;5074967;28;20217;-81
2023/11/15 00:42:03;;;;;;;6.33;1.50;;;9.80;1.00;;;;;;5073020;28;20206;-82
2023/11/15 00:44:30;;;;;;;3.47;1.47;;;9.80;1.00;;;;;;5075984;28;20199;-81
2023/11/15 00:46:57;;;;;;;3.97;1.70;;;9.80;99.90;;;;;;5072742;28;20308;-81
2023/11/15 00:49:24;;;;;;;4.03;1.50;;;9.80;99.90;;;;;;5065520;28;20214;-81
2023/11/15 00:51:51;;;;;;;5.47;1.40;;;9.80;1.00;;;;;;5072271;28;20209;-82
2023/11/15 00:54:19;;;;;;;3.13;1.53;;;9.80;1.00;;;;;;5072935;28;20221;-82
2023/11/15 00:56:46;;;;;;;3.90;1.40;;;9.70;1.00;;;;;;5074875;28;20232;-81
2023/11/15 00:59:16;;;;;;;8.07;2.40;;;9.70;1.00;;;;;;5073648;28;20429;-81
2023/11/15 01:01:43;;;;;;;5.00;1.70;;;9.70;99.90;;;;;;5073832;28;20244;-82
2023/11/15 01:04:11;;;;;;;5.17;1.60;;;9.60;1.00;;;;;;5069299;28;20202;-80
2023/11/15 01:06:38;;;;;;;8.07;2.20;;;9.60;91.60;;;;;;5073994;28;20289;-81
2023/11/15 01:09:08;;;;;;;3.73;1.23;;;9.60;99.90;;;;;;5074219;28;20206;-82
2023/11/15 01:11:35;;;;;;;3.50;1.60;;;9.60;1.00;;;;;;5066651;28;20210;-81
2023/11/15 01:14:03;;;;;;;7.40;1.77;;;9.70;1.00;;;;;;5076421;28;20271;-81
2023/11/15 01:16:31;;;;;;;2.27;1.30;;;9.70;1.00;;;;;;5073791;28;20222;-81
2023/11/15 01:18:58;;;;;;;4.77;1.70;;;9.70;1.00;;;;;;5075477;28;20317;-82
2023/11/15 01:21:25;;;;;;;5.43;1.80;;;9.70;1.00;;;;;;5067751;28;20289;-80
2023/11/15 01:23:56;;;;;;;2.97;1.43;;;9.70;1.00;;;;;;5073962;28;20204;-81
2023/11/15 01:26:23;;;;;;;4.60;1.23;;;9.70;1.00;;;;;;5063648;28;20302;-81
2023/11/15 01:28:50;;;;;;;4.27;1.47;;;9.70;1.00;;;;;;5080343;28;20217;-82
2023/11/15 01:31:17;;;;;;;5.43;1.73;;;9.80;99.90;;;;;;5072642;28;20194;-81
2023/11/15 01:33:45;;;;;;;3.17;1.50;;;9.80;99.90;;;;;;5075630;28;20226;-80
2023/11/15 01:36:12;;;;;;;2.87;1.43;;;9.80;99.90;;;;;;5079618;28;20221;-80
2023/11/15 01:38:40;;;;;;;4.57;1.63;;;9.80;99.90;;;;;;5072652;28;20202;-82
2023/11/15 01:41:07;;;;;;;5.13;1.60;;;9.80;18.40;;;;;;5080113;28;20269;-82
2023/11/15 01:43:34;;;;;;;8.17;1.80;;;9.90;1.00;;;;;;5079788;28;20666;-83
2023/11/15 01:46:02;;;;;;;2.63;1.50;;;9.80;1.00;;;;;;5064935;28;20206;-83
2023/11/15 01:48:29;;;;;;;3.80;1.27;;;9.70;1.00;;;;;;5073179;28;20236;-82
2023/11/15 01:50:57;;;;;;;4.80;1.40;;;9.70;1.00;;;;;;5080259;28;20202;-84
2023/11/15 01:53:25;;;;;;;3.30;1.60;;;9.80;1.00;;;;;;5072188;28;20234;-83
2023/11/15 01:55:52;;;;;;;5.17;1.37;;;9.80;1.00;;;;;;5081938;28;20204;-83
2023/11/15 01:58:19;;;;;;;3.37;1.40;;;9.80;1.00;;;;;;5071144;28;20195;-83
2023/11/15 02:00:46;;;;;;;3.77;1.60;;;9.80;1.00;;;;;;5070245;28;20194;-82
2023/11/15 02:03:13;;;;;;;4.47;1.47;;;10.00;99.90;;;;;;5079725;28;20660;-82
2023/11/15 02:05:41;;;;;;;4.20;1.53;;;9.70;99.90;;;;;;5078099;28;20225;-82
2023/11/15 02:08:09;;;;;;;2.90;1.53;;;9.80;99.90;;;;;;5068314;28;20209;-83
2023/11/15 02:10:37;;;;;;;4.07;1.23;;;9.80;99.90;;;;;;5075551;28;20657;-82
2023/11/15 02:13:03;;;;;;;4.70;1.53;;;9.80;99.90;;;;;;5077004;28;20237;-82
2023/11/15 02:15:31;;;;;;;3.97;1.47;;;9.80;99.90;;;;;;5071485;28;20210;-82
2023/11/15 02:17:58;;;;;;;5.13;1.67;;;9.80;99.90;;;;;;5070004;28;20220;-83
2023/11/15 02:20:25;;;;;;;5.63;1.77;;;9.80;99.90;;;;;;5067493;28;20210;-82
2023/11/15 02:22:53;;;;;;;7.27;1.73;;;9.80;99.90;;;;;;5066695;28;20775;-83
2023/11/15 02:25:23;;;;;;;3.90;1.50;;;9.90;99.90;;;;;;5071032;28;20215;-83
2023/11/15 02:27:50;;;;;;;5.33;1.90;;;9.80;99.90;;;;;;5068362;28;20223;-82
2023/11/15 02:30:16;;;;;;;5.33;1.43;;;9.80;99.90;;;;;;5069232;28;20661;-82
2023/11/15 02:32:43;;;;;;;5.00;1.73;;;9.80;99.90;;;;;;5069665;28;20654;-83
2023/11/15 02:35:10;;;;;;;4.83;1.30;;;9.80;99.90;;;;;;5077522;28;20263;-81
2023/11/15 02:37:37;;;;;;;2.80;1.40;;;9.80;99.90;;;;;;5078044;28;20218;-83
2023/11/15 02:40:09;;;;;;;2.87;1.47;;;9.80;99.90;;;;;;5078559;28;20202;-83
2023/11/15 02:42:37;;;;;;;3.37;1.03;;;9.80;1.00;;;;;;5075296;28;20211;-83
2023/11/15 02:45:05;;;;;;;4.40;1.10;;;9.80;1.00;;;;;;5075187;28;20198;-83
2023/11/15 02:47:31;;;;;;;4.30;1.67;;;9.80;1.00;;;;;;5074678;28;20309;-82
2023/11/15 02:49:58;;;;;;;4.27;1.40;;;9.80;1.00;;;;;;5068734;28;20198;-83
2023/11/15 02:52:26;;;;;;;4.40;1.53;;;9.80;1.00;;;;;;5071523;28;20207;-82
2023/11/15 02:54:55;;;;;;;3.17;1.20;;;9.80;1.00;;;;;;5077649;28;20214;-82
2023/11/15 02:57:22;;;;;;;4.10;1.67;;;9.70;1.00;;;;;;5075901;28;20219;-82
2023/11/15 02:59:50;;;;;;;4.30;1.40;;;9.70;1.00;;;;;;5077923;28;20212;-83
2023/11/15 03:02:17;;;;;;;4.73;1.57;;;9.70;1.00;;;;;;5076631;28;20206;-82
2023/11/15 03:04:43;;;;;;;2.50;1.10;;;9.70;1.00;;;;;;5062730;28;20203;-82
2023/11/15 03:07:10;;;;;;;3.27;1.73;;;9.70;1.00;;;;;;5068383;28;20226;-82
2023/11/15 03:09:37;;;;;;;2.53;1.40;;;9.70;1.00;;;;;;5069576;28;20210;-83
2023/11/15 03:12:04;;;;;;;1.40;1.30;;;9.60;99.90;;;;;;5076561;28;20212;-83
2023/11/15 03:14:31;;;;;;;4.90;1.60;;;9.50;1.00;;;;;;5068996;28;20230;-83
2023/11/15 03:17:07;;;;;;;3.00;1.53;;;9.50;99.90;;;;;;5064264;28;20220;-82
2023/11/15 03:19:33;;;;;;;3.83;1.10;;;9.40;1.00;;;;;;5076608;28;20212;-83
2023/11/15 03:22:00;;;;;;;2.87;1.23;;;9.40;1.00;;;;;;5072207;28;20650;-82
2023/11/15 03:24:28;;;;;;;5.17;1.67;;;9.30;1.00;;;;;;5068320;28;20290;-82
2023/11/15 03:26:55;;;;;;;2.47;1.63;;;9.40;1.00;;;;;;5071359;28;20250;-82
2023/11/15 03:29:22;;;;;;;4.30;1.70;;;9.40;1.00;;;;;;5074047;28;20626;-83
2023/11/15 03:31:49;;;;;;;4.97;1.73;;;9.30;1.00;;;;;;5074895;28;20662;-83
2023/11/15 03:34:17;;;;;;;4.37;1.50;;;9.40;99.90;;;;;;5077322;28;20749;-82
2023/11/15 03:36:43;;;;;;;6.73;1.47;;;9.40;1.00;;;;;;5078690;28;20719;-83
2023/11/15 03:39:12;;;;;;;5.43;1.37;;;9.40;1.00;;;;;;5081558;28;20206;-82
2023/11/15 03:41:39;;;;;;;3.83;1.77;;;9.40;1.00;;;;;;5074667;28;20662;-82
2023/11/15 03:44:06;;;;;;;4.13;1.40;;;9.40;1.00;;;;;;5073485;28;20202;-83
2023/11/15 03:46:33;;;;;;;2.27;1.50;;;9.40;1.00;;;;;;5073832;28;20218;-81
2023/11/15 03:49:00;;;;;;;4.77;1.30;;;9.40;1.00;;;;;;5078117;28;20217;-81
2023/11/15 03:51:28;;;;;;;2.37;0.93;;;9.40;1.00;;;;;;5084020;28;20595;-82
2023/11/15 03:53:55;;;;;;;1.60;1.10;;;9.30;1.00;;;;;;5084761;28;20226;-83
2023/11/15 03:56:22;;;;;;;5.80;1.50;;;9.30;1.00;;;;;;5082790;28;20218;-82
2023/11/15 03:58:49;;;;;;;4.50;1.50;;;9.30;1.00;;;;;;5078416;28;20209;-82
2023/11/15 04:01:16;;;;;;;5.40;1.50;;;9.20;1.00;;;;;;5085223;28;20194;-82
2023/11/15 04:03:43;;;;;;;2.67;1.17;;;9.10;1.00;;;;;;5081781;28;20656;-81
2023/11/15 04:06:10;;;;;;;1.13;0.93;;;9.10;29.10;;;;;;5077488;28;20222;-83
2023/11/15 04:08:39;;;;;;;2.73;0.90;;;9.00;99.90;;;;;;5078548;28;20202;-81
2023/11/15 04:11:06;;;;;;;0.90;0.63;;;8.90;99.90;;;;;;5074828;28;20658;-81
2023/11/15 04:13:35;;;;;;;1.77;0.70;;;8.90;1.00;;;;;;5079487;28;20293;-81
2023/11/15 04:16:03;;;;;;;1.37;0.80;;;8.80;55.10;;;;;;5076090;28;20232;-81
2023/11/15 04:18:30;;;;;;;2.67;0.97;;;8.90;99.90;;;;;;5085073;28;20285;-81
2023/11/15 04:20:57;;;;;;;2.47;0.63;;;8.80;99.90;;;;;;5080570;28;20261;-82
2023/11/15 04:23:25;;;;;;;2.10;1.57;;;8.80;99.90;;;;;;5076126;28;20681;-83
2023/11/15 04:25:53;;;;;;;0.97;0.70;;;8.70;99.90;;;;;;5079082;28;20212;-82
2023/11/15 04:28:20;;;;;;;1.23;0.70;;;8.80;99.90;;;;;;5082724;28;20216;-82
2023/11/15 04:30:47;;;;;;;4.10;1.20;;;8.70;99.90;;;;;;5082824;28;20265;-83
2023/11/15 04:33:14;;;;;;;3.40;1.50;;;8.70;99.90;;;;;;5080631;28;20209;-82
2023/11/15 04:35:41;;;;;;;0.77;0.60;;;8.70;99.90;;;;;;5073265;28;20290;-82
2023/11/15 04:38:09;;;;;;;2.63;0.50;;;8.70;99.90;;;;;;5080711;28;20206;-83
2023/11/15 04:40:37;;;;;;;1.43;0.70;;;8.60;99.90;;;;;;5077895;28;20575;-83
2023/11/15 04:43:05;;;;;;;2.23;0.80;;;8.60;99.90;;;;;;5072185;28;20720;-83
2023/11/15 04:45:32;;;;;;;1.17;0.70;;;8.60;99.90;;;;;;5071853;28;20217;-83
2023/11/15 04:47:59;;;;;;;1.60;1.50;;;8.60;99.90;;;;;;5081119;28;20746;-83
2023/11/15 04:50:26;;;;;;;2.23;1.00;;;8.50;99.90;;;;;;5080747;28;20212;-82
2023/11/15 04:52:52;;;;;;;4.10;0.93;;;8.60;99.90;;;;;;5079890;28;20206;-83
2023/11/15 04:55:20;;;;;;;1.23;0.70;;;8.60;99.90;;;;;;5081340;28;20218;-83
2023/11/15 04:57:46;;;;;;;2.27;0.97;;;8.50;99.90;;;;;;5081117;28;20232;-82
2023/11/15 05:00:15;;;;;;;0.80;0.80;;;8.50;99.90;;;;;;5081074;28;20292;-82
2023/11/15 05:02:42;;;;;;;3.27;0.90;;;8.50;99.90;;;;;;5077542;28;20816;-82
2023/11/15 05:05:10;;;;;;;3.20;0.90;;;8.50;99.90;;;;;;5081953;28;20202;-83
2023/11/15 05:07:38;;;;;;;2.63;0.90;;;8.40;99.90;;;;;;5072880;28;20233;-83
2023/11/15 05:10:06;;;;;;;1.33;0.60;;;8.40;99.90;;;;;;5080901;28;20714;-83
2023/11/15 05:12:32;;;;;;;2.37;0.70;;;8.40;99.90;;;;;;5072208;28;20585;-83
2023/11/15 05:14:59;;;;;;;2.70;1.03;;;8.50;99.90;;;;;;5079509;28;20222;-82
2023/11/15 05:17:27;;;;;;;5.57;2.40;;;8.40;99.90;;;;;;5082025;28;20226;-82
2023/11/15 05:19:54;;;;;;;9.57;2.83;;;8.40;99.90;;;;;;5081982;28;20212;-82
2023/11/15 05:22:21;;;;;;;3.93;1.60;;;8.40;99.90;;;;;;5072242;28;20209;-81
2023/11/15 05:24:48;;;;;;;2.93;1.43;;;8.40;99.90;;;;;;5072409;28;20211;-82
2023/11/15 05:27:16;;;;;;;1.07;1.00;;;8.40;99.90;;;;;;5080218;28;20222;-82
2023/11/15 05:29:43;;;;;;;2.80;1.27;;;8.40;99.90;;;;;;5080549;28;20213;-81
2023/11/15 05:32:10;;;;;;;4.30;1.00;;;8.40;99.90;;;;;;5079463;28;20206;-82
2023/11/15 05:34:38;;;;;;;1.73;0.83;;;8.40;99.90;;;;;;5072978;28;20263;-82
2023/11/15 05:37:05;;;;;;;1.43;0.90;;;8.50;99.90;;;;;;5080915;28;20236;-81
2023/11/15 05:39:31;;;;;;;2.07;1.37;;;8.40;86.60;;;;;;5078968;28;20666;-81
2023/11/15 05:41:58;;;;;;;1.43;1.10;;;8.40;31.20;;;;;;5073896;28;20214;-81
2023/11/15 05:44:25;;;;;;;2.63;1.33;;;8.60;1.00;;;;;;5076301;28;20199;-81
2023/11/15 05:46:52;;;;;;;3.63;1.30;;;8.40;1.00;;;;;;5085799;28;20225;-81
2023/11/15 05:49:19;;;;;;;2.70;0.93;;;8.40;1.00;;;;;;5085092;28;20856;-80
2023/11/15 05:51:47;;;;;;;4.03;1.00;;;8.40;1.00;;;;;;5084184;28;20694;-83
2023/11/15 05:54:14;;;;;;;1.50;1.30;;;8.40;1.00;;;;;;5075774;28;20234;-82
2023/11/15 05:56:46;;;;;;;2.63;0.83;;;8.50;1.00;;;;;;5083508;28;20659;-82
2023/11/15 05:59:13;;;;;;;2.47;0.93;;;8.40;1.00;;;;;;5077634;28;20198;-80
2023/11/15 06:01:40;;;;;;;1.67;0.97;;;8.40;1.00;;;;;;5076895;28;20232;-81
2023/11/15 06:04:08;;;;;;;1.60;0.83;;;8.40;77.90;;;;;;5084926;28;20238;-81
2023/11/15 06:06:34;;;;;;;1.63;0.73;;;8.30;99.90;;;;;;5088523;28;20724;-81
2023/11/15 06:09:04;;;;;;;3.17;1.10;;;8.40;99.90;;;;;;5082517;28;20199;-81
2023/11/15 06:11:31;;;;;;;1.27;0.67;;;8.40;99.90;;;;;;5088376;28;20210;-82
2023/11/15 06:13:59;;;;;;;1.33;0.87;;;8.40;99.90;;;;;;5080605;28;20213;-81
2023/11/15 06:16:26;;;;;;;3.17;1.00;;;8.40;99.90;;;;;;5083288;28;20233;-81
2023/11/15 06:18:53;;;;;;;2.73;0.77;;;8.40;99.90;;;;;;5072745;28;20210;-81
2023/11/15 06:21:20;;;;;;;1.43;0.40;;;8.40;99.90;;;;;;5081992;28;20753;-81
2023/11/15 06:23:47;;;;;;;2.93;0.70;;;8.40;99.90;;;;;;5084681;28;20206;-82
2023/11/15 06:26:16;;;;;;;2.53;1.53;;;8.40;99.90;;;;;;5076325;28;20230;-81
2023/11/15 06:28:42;;;;;;;2.67;0.40;;;8.40;99.90;;;;;;5084488;28;20206;-82
2023/11/15 06:31:09;;;;;;;0.77;0.60;;;8.40;99.90;;;;;;5074675;28;20264;-81
2023/11/15 06:33:37;;;;;;;0.83;0.47;;;8.40;99.90;;;;;;5075580;28;20274;-82
2023/11/15 06:36:06;;;;;;;1.23;0.50;;;8.40;99.90;;;;;;5083937;28;20225;-81
2023/11/15 06:38:34;;;;;;;1.00;0.60;;;8.50;99.90;;;;;;5084278;28;20210;-81
2023/11/15 06:41:02;;;;;;;0.67;0.53;;;8.40;99.90;;;;;;5082978;28;20207;-81
2023/11/15 06:43:31;;;;;;;1.13;0.70;;;8.40;99.90;;;;;;5077612;28;20214;-82
2023/11/15 06:45:58;;;;;;;1.17;0.70;;;8.40;99.90;;;;;;5081685;28;20260;-81
2023/11/15 06:48:25;;;;;;;2.73;1.00;;;8.50;99.90;;;;;;5073311;28;20214;-82
2023/11/15 06:50:52;;;;;;;3.47;0.90;;;8.50;99.90;;;;;;5081217;28;20552;-81
2023/11/15 06:53:19;;;;;;;2.73;0.70;;;8.40;99.90;;;;;;5074739;28;20195;-81
2023/11/15 06:55:47;;;;;;;3.97;1.10;;;8.40;99.90;;;;;;5072609;28;20218;-82
2023/11/15 06:58:15;;;;;;;1.33;1.00;;;8.40;99.90;;;;;;5069213;28;20286;-81
2023/11/15 07:00:44;;;;;;;1.13;1.00;;;8.40;99.90;;;;;;5075299;28;20260;-82
2023/11/15 07:03:12;;;;;;;2.80;1.13;;;8.40;99.90;;;;;;5079134;28;20735;-82
2023/11/15 07:05:40;;;;;;;1.97;1.20;;;8.50;99.90;;;;;;5082565;28;20228;-81
2023/11/15 07:08:11;;;;;;;3.80;1.37;;;8.50;99.90;;;;;;5082685;28;20305;-81
2023/11/15 07:10:38;;;;;;;2.50;1.20;;;8.50;99.90;;;;;;5073033;28;20213;-81
2023/11/15 07:13:07;;;;;;;3.03;1.90;;;8.50;99.90;;;;;;5078836;28;20213;-81
2023/11/15 07:15:35;;;;;;;1.70;1.00;;;8.50;99.90;;;;;;5076985;28;20268;-81
2023/11/15 07:18:03;;;;;;;4.13;1.93;;;8.50;99.90;;;;;;5078499;28;20214;-81
2023/11/15 07:20:30;;;;;;;2.17;1.40;;;8.50;99.90;;;;;;5081069;28;20206;-81
2023/11/15 07:22:57;;;;;;;2.27;1.20;;;8.50;99.90;;;;;;5079780;28;20551;-81
2023/11/15 07:25:27;;;;;;;3.47;1.47;;;8.50;99.90;;;;;;5080382;28;20215;-81
2023/11/15 07:27:55;;;;;;;1.63;1.53;;;8.40;99.90;;;;;;5069236;28;20226;-81
2023/11/15 07:30:23;;;;;;;4.20;1.77;;;8.40;99.90;;;;;;5075579;28;20202;-81
2023/11/15 07:32:50;;;;;;;3.27;2.10;;;8.40;99.90;;;;;;5066373;28;20206;-81
2023/11/15 07:35:19;;;;;;;3.10;2.27;;;8.40;99.90;;;;;;5076276;28;20226;-82
2023/11/15 07:37:48;;;;;;;3.47;1.90;;;8.50;99.90;;;;;;5074990;28;20629;-82
2023/11/15 07:40:16;;;;;;;3.73;1.93;;;8.50;99.90;;;;;;5069055;28;20213;-82
2023/11/15 07:42:43;;;;;;;4.13;1.80;;;8.60;99.90;;;;;;5078023;28;20216;-81
2023/11/15 07:45:11;;;;;;;4.23;1.50;;;8.60;99.90;;;;;;5078917;28;20209;-82
2023/11/15 07:47:38;;;;;;;2.83;1.63;;;8.60;99.90;;;;;;5059750;28;20227;-82
2023/11/15 07:50:06;;;;;;;3.30;1.27;;;8.70;99.90;;;;;;5078530;28;20596;-81
2023/11/15 07:52:36;;;;;;;1.20;0.90;;;8.70;99.90;;;;;;5069627;28;20248;-81
2023/11/15 07:55:05;;;;;;;2.63;1.20;;;8.70;99.90;;;;;;5080043;28;20229;-81
2023/11/15 07:57:32;;;;;;;2.77;1.00;;;8.70;99.90;;;;;;5079674;28;20258;-81
2023/11/15 07:59:59;;;;;;;4.10;1.93;;;8.70;99.90;;;;;;5082895;28;20657;-82
2023/11/15 08:02:26;;;;;;;4.57;1.50;;;8.60;99.90;;;;;;5079823;28;20206;-82
2023/11/15 08:04:53;;;;;;;1.07;0.70;;;8.70;99.90;;;;;;5087394;28;20245;-81
2023/11/15 08:07:21;;;;;;;4.50;1.30;;;8.70;99.90;;;;;;5078528;28;20603;-81
2023/11/15 08:09:50;;;;;;;4.00;1.00;;;8.70;99.90;;;;;;5072415;28;20237;-81
2023/11/15 08:12:18;;;;;;;2.53;1.17;;;8.70;99.90;;;;;;5067094;28;20682;-81
2023/11/15 08:14:46;;;;;;;2.60;1.30;;;8.80;99.90;;;;;;5074775;28;20199;-81
2023/11/15 08:17:14;;;;;;;2.57;1.27;;;8.80;99.90;;;;;;5076866;28;20224;-81
2023/11/15 08:19:44;;;;;;;3.60;0.93;;;8.90;99.90;;;;;;5072994;28;20210;-81
2023/11/15 08:22:11;;;;;;;0.97;0.80;;;8.90;99.90;;;;;;5073513;28;20210;-81
2023/11/15 08:24:39;;;;;;;2.83;0.80;;;8.90;99.90;;;;;;5081156;28;20198;-82
2023/11/15 08:27:08;;;;;;;1.67;1.30;;;8.90;99.90;;;;;;5072311;28;20226;-82
2023/11/15 08:29:35;;;;;;;9.80;1.43;;;8.90;99.90;;;;;;5071800;28;20206;-82
2023/11/15 08:32:03;;;;;;;4.67;1.13;;;8.90;99.90;;;;;;5071617;28;20203;-82
2023/11/15 08:34:30;;;;;;;3.63;1.63;;;8.90;99.90;;;;;;5079816;28;20209;-81
2023/11/15 08:36:58;;;;;;;1.80;1.30;;;8.90;99.90;;;;;;5070395;28;20226;-81
2023/11/15 08:39:27;;;;;;;3.23;1.97;;;8.90;99.90;;;;;;5078532;28;20214;-81
2023/11/15 08:41:54;;;;;;;6.33;2.53;;;8.90;99.90;;;;;;5078780;28;20293;-81
2023/11/15 08:44:23;;;;;;;7.97;3.40;;;9.00;99.90;;;;;;5078764;28;20289;-82
2023/11/15 08:46:50;;;;;;;6.43;3.67;;;9.00;99.90;;;;;;5078976;28;20696;-81
2023/11/15 08:49:18;;;;;;;5.97;2.90;;;9.10;99.90;;;;;;5069630;28;20218;-81
2023/11/15 08:51:47;;;;;;;3.40;2.07;;;9.10;99.90;;;;;;5082479;28;20207;-82
2023/11/15 08:54:14;;;;;;;4.10;2.30;;;9.10;99.90;;;;;;5071476;28;20236;-81
2023/11/15 08:56:41;;;;;;;3.60;2.40;;;9.20;99.90;;;;;;5076439;28;20706;-81
2023/11/15 08:59:11;;;;;;;6.13;2.73;;;9.30;99.90;;;;;;5077147;28;20209;-81
2023/11/15 09:01:41;;;;;;;4.80;2.50;;;9.20;99.90;;;;;;5069922;28;20689;-81
2023/11/15 09:04:08;;;;;;;4.00;2.50;;;9.20;99.90;;;;;;5078288;28;20214;-81
2023/11/15 09:06:35;;;;;;;3.97;2.37;;;9.30;99.90;;;;;;5069534;28;20591;-81
2023/11/15 09:09:03;;;;;;;4.00;2.23;;;9.30;99.90;;;;;;5075136;28;20202;-81
2023/11/15 09:11:31;;;;;;;3.33;2.37;;;9.30;99.90;;;;;;5074685;28;20232;-81
2023/11/15 09:13:58;;;;;;;2.83;2.53;;;9.40;99.90;;;;;;5071165;28;20293;-82
2023/11/15 09:16:26;;;;;;;3.97;2.73;;;9.40;99.90;;;;;;5073225;28;20233;-81
2023/11/15 09:18:55;;;;;;;2.43;2.23;;;9.50;99.90;;;;;;5079825;28;20236;-82
2023/11/15 09:21:22;;;;;;;5.13;2.60;;;9.60;99.90;;;;;;5080429;28;20210;-82
2023/11/15 09:23:49;;;;;;;4.70;2.77;;;9.60;99.90;;;;;;5081592;28;20206;-82
2023/11/15 09:26:19;;;;;;;5.53;3.27;;;9.60;99.90;;;;;;5081693;28;20595;-81
2023/11/15 09:28:46;;;;;;;5.13;3.30;;;9.70;99.90;;;;;;5078396;28;20625;-82
2023/11/15 09:31:13;;;;;;;5.43;3.03;;;9.70;99.90;;;;;;5078837;28;20213;-81
2023/11/15 09:33:40;;;;;;;4.30;2.67;;;9.70;99.90;;;;;;5072475;28;20210;-81
2023/11/15 09:36:12;;;;;;;6.20;2.83;;;9.90;99.90;;;;;;5072253;28;20235;-81
2023/11/15 09:38:40;;;;;;;4.43;2.63;;;9.80;99.90;;;;;;5073877;28;20623;-81
2023/11/15 09:41:13;;;;;;;3.57;2.30;;;9.80;99.90;;;;;;5073045;28;20210;-81
2023/11/15 09:43:41;;;;;;;5.10;2.40;;;9.90;99.90;;;;;;5078504;28;20203;-82
2023/11/15 09:46:12;;;;;;;4.93;2.90;;;9.90;99.90;;;;;;5084902;28;20210;-81
2023/11/15 09:48:43;;;;;;;4.77;2.60;;;10.00;99.90;;;;;;5074781;28;20297;-82
2023/11/15 09:51:14;;;;;;;4.70;2.33;;;10.00;99.90;;;;;;5073428;28;20203;-82
2023/11/15 09:53:41;;;;;;;3.47;2.27;;;10.10;99.90;;;;;;5071753;28;20294;-82
2023/11/15 09:56:08;;;;;;;6.07;2.53;;;10.10;99.90;;;;;;5078163;28;20222;-82
2023/11/15 09:58:36;;;;;;;2.43;2.10;;;10.20;99.90;;;;;;5069605;28;20680;-81
2023/11/15 10:01:04;;;;;;;6.30;2.33;;;10.20;99.90;;;;;;5069445;28;20199;-82
2023/11/15 10:03:31;;;;;;;3.43;1.97;;;10.30;99.90;;;;;;5081068;28;20735;-81
2023/11/15 10:05:59;;;;;;;3.57;1.83;;;10.30;48.80;;;;;;5073370;28;20221;-82
2023/11/15 10:08:28;;;;;;;3.37;1.87;;;10.30;1.00;;;;;;5070708;28;20274;-81
2023/11/15 10:11:09;;;;;;;4.10;1.77;;;10.40;1.00;;;;;;5070991;28;20236;-81
2023/11/15 10:13:37;;;;;;;3.93;1.50;;;10.30;1.00;;;;;;5077884;28;20206;-82
2023/11/15 10:16:23;;;;;;;4.83;1.70;;;10.30;1.00;;;;;;5068741;28;20231;-82
2023/11/15 10:18:50;;;;;;;3.83;1.60;;;10.30;1.00;;;;;;5072703;28;20194;-82
2023/11/15 10:21:19;;;;;;;5.57;2.40;;;10.30;99.90;;;;;;5078755;28;20220;-82
2023/11/15 10:23:48;;;;;;;4.03;1.80;;;10.30;32.80;;;;;;5072443;28;20230;-82
2023/11/15 10:26:16;;;;;;;2.57;2.07;;;10.20;1.00;;;;;;5067811;28;20710;-82
2023/11/15 10:28:45;;;;;;;5.20;2.17;;;10.20;1.00;;;;;;5077061;28;20198;-82
2023/11/15 10:31:14;;;;;;;6.43;2.27;;;10.10;1.00;;;;;;5077571;28;20205;-82
2023/11/15 10:33:43;;;;;;;6.47;2.67;;;10.10;99.90;;;;;;5069598;28;20203;-82
2023/11/15 10:36:18;;;;;;;3.67;2.03;;;10.10;1.00;;;;;;5078291;28;20237;-82
2023/11/15 10:38:50;;;;;;;4.03;2.00;;;10.10;1.00;;;;;;5072510;28;20201;-82
2023/11/15 10:41:19;;;;;;;2.90;1.63;;;10.10;74.20;;;;;;5078537;28;20264;-81
2023/11/15 10:43:50;;;;;;;3.10;1.37;;;10.10;99.90;;;;;;5079306;28;20198;-82
2023/11/15 10:46:18;;;;;;;2.13;1.77;;;10.00;99.90;;;;;;5082558;28;20289;-81
2023/11/15 10:48:49;;;;;;;5.10;2.50;;;10.10;99.90;;;;;;5078598;28;20198;-81
2023/11/15 10:51:22;;;;;;;2.50;2.30;;;10.10;99.90;;;;;;5076275;28;20213;-81
2023/11/15 10:53:51;;;;;;;3.70;2.10;;;10.10;99.90;;;;;;5076677;28;20238;-81
2023/11/15 10:56:22;;;;;;;2.00;1.90;;;10.30;99.90;;;;;;5079592;28;20230;-82
2023/11/15 10:58:52;;;;;;;3.63;1.70;;;10.30;99.90;;;;;;5080796;28;20210;-81
2023/11/15 11:01:22;;;;;;;2.27;1.90;;;10.20;99.90;;;;;;5069558;28;20659;-81
2023/11/15 11:03:55;;;;;;;4.87;2.17;;;10.30;99.90;;;;;;5079184;28;20206;-81
2023/11/15 11:06:26;;;;;;;6.63;2.40;;;10.20;99.90;;;;;;5072736;28;20227;-81
2023/11/15 11:09:03;;;;;;;2.43;2.00;;;10.10;99.90;;;;;;5080414;28;20210;-81
2023/11/15 11:11:40;;;;;;;3.27;2.10;;;10.10;99.90;;;;;;5070167;28;20241;-81
2023/11/15 11:14:26;;;;;;;3.30;2.20;;;10.00;99.90;;;;;;5070065;28;20248;-81
2023/11/15 11:16:56;;;;;;;4.43;2.10;;;10.00;99.90;;;;;;5070106;28;20230;-81
2023/11/15 11:19:24;;;;;;;7.03;2.50;;;10.00;99.90;;;;;;5078583;28;20213;-81
2023/11/15 11:22:11;;;;;;;4.53;2.30;;;10.10;99.90;;;;;;5075542;28;20206;-82
2023/11/15 11:24:45;;;;;;;6.50;2.90;;;10.00;99.90;;;;;;5070904;28;20217;-81
2023/11/15 11:27:36;;;;;;;7.10;3.20;;;10.00;99.90;;;;;;5069626;28;20223;-81
2023/11/15 11:30:17;;;;;;;4.73;3.20;;;10.00;99.90;;;;;;5080482;28;20198;-81
2023/11/15 11:32:47;;;;;;;6.87;4.17;;;10.10;99.90;;;;;;5070289;28;20272;-81
2023/11/15 11:35:34;;;;;;;14.40;7.17;;;10.00;99.90;;;;;;5069644;28;20285;-82
2023/11/15 11:38:03;;;;;;;12.10;6.87;;;9.90;99.90;;;;;;5077460;28;20248;-82
2023/11/15 11:40:33;;;;;;;11.50;5.67;;;9.90;99.90;;;;;;5069139;28;20651;-81
2023/11/15 11:43:22;;;;;;;9.13;3.97;;;9.90;99.90;;;;;;5073721;28;20252;-81
2023/11/15 11:45:52;;;;;;;9.23;4.20;;;9.80;99.90;;;;;;5074178;28;20210;-82
2023/11/15 11:48:23;;;;;;;7.63;4.40;;;9.80;99.90;;;;;;5080127;28;20300;-82
2023/11/15 11:50:55;;;;;;;8.33;4.70;;;9.80;99.90;;;;;;5082552;28;20220;-81
2023/11/15 11:53:22;;;;;;;8.97;4.90;;;10.00;99.90;;;;;;5080898;28;20187;-81
2023/11/15 11:55:54;;;;;;;5.83;3.00;;;9.90;99.90;;;;;;5077511;28;20226;-81
2023/11/15 11:58:22;;;;;;;4.67;3.30;;;9.90;99.90;;;;;;5078634;28;20195;-81
2023/11/15 12:00:49;;;;;;;3.90;3.23;;;9.90;99.90;;;;;;5072736;28;20214;-81
2023/11/15 12:03:16;;;;;;;4.03;2.70;;;9.90;99.90;;;;;;5071472;28;20210;-80
2023/11/15 12:05:44;;;;;;;3.53;2.40;;;9.90;99.90;;;;;;5065213;28;20205;-81
2023/11/15 12:08:11;;;;;;;3.87;2.30;;;9.80;99.90;;;;;;5064306;28;20225;-81
2023/11/15 12:10:42;;;;;;;2.80;2.43;;;9.80;99.90;;;;;;5071794;28;20214;-81
2023/11/15 12:13:11;;;;;;;3.60;2.87;;;9.80;99.90;;;;;;5079888;28;20248;-81
2023/11/15 12:15:38;;;;;;;3.50;2.03;;;9.70;99.90;;;;;;5070485;28;20206;-81
2023/11/15 12:18:07;;;;;;;2.60;2.17;;;9.70;99.90;;;;;;5076025;28;20218;-82
2023/11/15 12:20:35;;;;;;;2.60;2.20;;;9.60;99.90;;;;;;5079370;28;20202;-82
2023/11/15 12:23:08;;;;;;;3.37;2.20;;;9.60;99.90;;;;;;5077986;28;20225;-82
2023/11/15 12:25:45;;;;;;;4.30;2.30;;;9.60;99.90;;;;;;5070984;28;20216;-81
2023/11/15 12:28:15;;;;;;;3.50;2.33;;;9.60;99.90;;;;;;5081472;28;20202;-82
2023/11/15 12:30:43;;;;;;;2.33;2.07;;;9.60;99.90;;;;;;5079875;28;20228;-81
2023/11/15 12:33:11;;;;;;;4.67;2.20;;;9.70;99.90;;;;;;5079377;28;20210;-81
2023/11/15 12:35:41;;;;;;;5.10;2.30;;;9.70;99.90;;;;;;5073933;28;20208;-82
2023/11/15 12:38:12;;;;;;;3.83;2.00;;;9.80;99.90;;;;;;5082923;28;20229;-82
2023/11/15 12:40:40;;;;;;;3.03;2.10;;;9.90;99.90;;;;;;5071165;28;20217;-81
2023/11/15 12:43:17;;;;;;;5.77;2.10;;;9.90;99.90;;;;;;5078837;28;20274;-82
2023/11/15 12:45:45;;;;;;;2.63;1.83;;;10.00;99.90;;;;;;5060990;28;20210;-81
2023/11/15 12:48:12;;;;;;;2.87;1.67;;;10.00;99.90;;;;;;5075418;28;20205;-82
2023/11/15 12:50:40;;;;;;;3.13;1.67;;;10.00;99.90;;;;;;5068876;28;20216;-81
2023/11/15 12:53:08;;;;;;;1.93;1.67;;;10.00;99.90;;;;;;5071338;28;20666;-81
2023/11/15 12:55:50;;;;;;;3.77;1.90;;;10.10;99.90;;;;;;5071333;28;20233;-82
2023/11/15 12:58:19;;;;;;;2.27;2.07;;;10.10;99.90;;;;;;5080198;28;20627;-82
2023/11/15 13:01:00;;;;;;;5.80;2.20;;;10.20;99.90;;;;;;5062510;28;20203;-81
2023/11/15 13:03:28;;;;;;;2.10;1.73;;;10.20;99.90;;;;;;5068820;28;20220;-82